Time;durP1;ratioP1;P1;durP2;ratioP2;P2;SDS_P1;SDS_P2;PMS_P1;PMS_P2;Temp;Humidity;BMP_temperature;BMP_pressure;BME280_temperature;BME280_humidity;BME280_pressure;Samples;Min_cycle;Max_cycle;Signal;HPM_P1;HPM_P2
2020/12/31 00:00:33;;;;;;;132.30;54.63;;;3.10;94.20;;;;;;5068301;28;20536;-83
2020/12/31 00:03:05;;;;;;;137.10;56.17;;;3.00;94.20;;;;;;5051330;28;20211;-84
2020/12/31 00:05:32;;;;;;;142.03;53.27;;;2.90;94.10;;;;;;5083202;28;20194;-82
2020/12/31 00:08:00;;;;;;;133.40;53.80;;;2.90;94.10;;;;;;5074528;28;20208;-83
2020/12/31 00:10:30;;;;;;;141.50;53.30;;;2.90;94.10;;;;;;5063184;28;20202;-83
2020/12/31 00:12:58;;;;;;;140.60;55.73;;;2.90;94.10;;;;;;5063686;28;20193;-82
2020/12/31 00:15:26;;;;;;;139.17;57.40;;;2.80;94.10;;;;;;5067091;28;20209;-83
2020/12/31 00:17:54;;;;;;;142.77;57.57;;;2.80;94.10;;;;;;5077690;28;20192;-83
2020/12/31 00:20:21;;;;;;;137.33;57.43;;;2.80;94.10;;;;;;5036294;28;20205;-82
2020/12/31 00:22:49;;;;;;;141.33;57.60;;;2.80;94.10;;;;;;5068049;28;20203;-83
2020/12/31 00:25:17;;;;;;;149.77;60.63;;;2.80;94.10;;;;;;5092851;28;20281;-83
2020/12/31 00:27:44;;;;;;;141.27;57.40;;;2.80;94.10;;;;;;5092745;28;20252;-82
2020/12/31 00:30:16;;;;;;;142.53;58.07;;;2.80;94.10;;;;;;5067419;28;20207;-84
2020/12/31 00:32:44;;;;;;;141.20;58.87;;;2.80;94.10;;;;;;5065116;28;20716;-81
2020/12/31 00:35:14;;;;;;;132.60;55.47;;;2.80;94.10;;;;;;5071884;28;20375;-82
2020/12/31 00:37:41;;;;;;;137.57;55.47;;;2.80;94.10;;;;;;5066033;28;20206;-82
2020/12/31 00:40:09;;;;;;;150.83;57.73;;;2.80;94.10;;;;;;5056879;28;20269;-83
2020/12/31 00:42:36;;;;;;;176.83;62.87;;;2.90;94.10;;;;;;5074878;28;20195;-82
2020/12/31 00:45:04;;;;;;;166.37;63.00;;;2.90;94.10;;;;;;5062051;28;20430;-81
2020/12/31 00:47:31;;;;;;;179.17;63.87;;;2.80;94.10;;;;;;5083137;28;20470;-82
2020/12/31 00:49:59;;;;;;;160.73;60.10;;;2.80;94.10;;;;;;5076768;28;21190;-82
2020/12/31 00:52:27;;;;;;;156.43;61.03;;;2.80;94.10;;;;;;5060247;28;20221;-83
2020/12/31 00:54:54;;;;;;;154.97;63.17;;;2.80;94.00;;;;;;5069775;28;20835;-82
2020/12/31 00:57:22;;;;;;;160.27;64.30;;;2.80;94.00;;;;;;5077772;28;20869;-81
2020/12/31 00:59:49;;;;;;;178.93;65.67;;;2.80;94.00;;;;;;5067351;28;20208;-83
2020/12/31 01:02:16;;;;;;;151.93;64.40;;;2.70;94.00;;;;;;5067965;28;20633;-80
2020/12/31 01:04:44;;;;;;;168.77;63.00;;;2.70;94.00;;;;;;5075180;28;20201;-81
2020/12/31 01:07:15;;;;;;;161.77;63.40;;;2.70;94.00;;;;;;5070541;28;20303;-83
2020/12/31 01:09:43;;;;;;;168.73;65.33;;;2.70;94.00;;;;;;5061706;28;20199;-83
2020/12/31 01:12:11;;;;;;;161.57;63.47;;;2.60;94.00;;;;;;5074507;28;20572;-81
2020/12/31 01:14:39;;;;;;;164.43;60.80;;;2.60;94.00;;;;;;5072739;28;20340;-82
2020/12/31 01:17:09;;;;;;;193.23;66.67;;;2.50;94.00;;;;;;5069542;28;20686;-83
2020/12/31 01:19:36;;;;;;;181.90;65.77;;;2.50;94.00;;;;;;5074849;28;20562;-82
2020/12/31 01:22:04;;;;;;;199.23;63.20;;;2.40;94.00;;;;;;5064301;28;20734;-82
2020/12/31 01:24:31;;;;;;;180.63;61.67;;;2.40;94.00;;;;;;5064959;28;20221;-83
2020/12/31 01:27:02;;;;;;;164.33;59.80;;;2.30;93.90;;;;;;5092430;28;20193;-82
2020/12/31 01:29:29;;;;;;;160.83;59.67;;;2.30;93.90;;;;;;5067564;28;20204;-82
2020/12/31 01:31:56;;;;;;;168.53;62.23;;;2.20;93.90;;;;;;5068848;28;20225;-83
2020/12/31 01:34:24;;;;;;;133.07;57.83;;;2.20;93.90;;;;;;5064703;28;20200;-83
2020/12/31 01:36:53;;;;;;;148.73;58.13;;;2.10;93.90;;;;;;5072517;28;20208;-82
2020/12/31 01:39:20;;;;;;;159.53;59.30;;;2.20;93.90;;;;;;5061997;28;20276;-82
2020/12/31 01:41:48;;;;;;;165.43;60.03;;;2.00;93.80;;;;;;5078033;28;20205;-83
2020/12/31 01:44:16;;;;;;;174.47;59.27;;;2.00;93.80;;;;;;5076507;28;20204;-82
2020/12/31 01:46:46;;;;;;;165.63;61.83;;;2.00;93.80;;;;;;5073827;28;20254;-83
2020/12/31 01:49:17;;;;;;;148.23;60.23;;;2.00;93.80;;;;;;5070809;28;20279;-83
2020/12/31 01:51:47;;;;;;;171.93;61.40;;;2.10;93.80;;;;;;5085064;28;20209;-83
2020/12/31 01:54:17;;;;;;;145.50;58.33;;;2.00;93.80;;;;;;5100965;28;20523;-84
2020/12/31 01:56:48;;;;;;;174.63;58.60;;;2.10;93.80;;;;;;5099394;28;20169;-83
2020/12/31 01:59:16;;;;;;;154.73;56.43;;;2.10;93.80;;;;;;5072677;28;20647;-82
2020/12/31 02:01:46;;;;;;;141.13;53.37;;;2.10;93.80;;;;;;5061491;28;20206;-83
2020/12/31 02:04:14;;;;;;;129.70;53.27;;;2.00;93.80;;;;;;5075622;28;20208;-82
2020/12/31 02:06:42;;;;;;;139.67;50.70;;;2.00;93.80;;;;;;5061297;28;20201;-82
2020/12/31 02:09:10;;;;;;;153.43;54.37;;;2.00;93.80;;;;;;5095573;28;20188;-81
2020/12/31 02:11:39;;;;;;;146.80;53.67;;;1.90;93.80;;;;;;5095004;28;20222;-82
2020/12/31 02:14:07;;;;;;;152.70;53.63;;;1.90;93.80;;;;;;5070065;28;20212;-82
2020/12/31 02:16:38;;;;;;;195.93;55.03;;;1.90;93.80;;;;;;5076015;28;20658;-83
2020/12/31 02:19:07;;;;;;;186.17;54.83;;;1.90;93.70;;;;;;5069889;28;20462;-82
2020/12/31 02:21:36;;;;;;;173.30;53.83;;;1.90;93.80;;;;;;5055762;28;20418;-82
2020/12/31 02:24:06;;;;;;;186.20;57.33;;;1.90;93.70;;;;;;5079827;28;20197;-82
2020/12/31 02:26:35;;;;;;;190.67;54.33;;;1.90;93.70;;;;;;5081153;28;20479;-82
2020/12/31 02:29:04;;;;;;;145.90;53.77;;;1.90;93.70;;;;;;5079042;28;20232;-83
2020/12/31 02:31:33;;;;;;;165.80;56.03;;;1.90;93.70;;;;;;5069410;28;20235;-83
2020/12/31 02:34:01;;;;;;;181.90;57.87;;;1.90;93.70;;;;;;5067548;28;20916;-83
2020/12/31 02:36:30;;;;;;;127.73;48.67;;;2.00;93.70;;;;;;5061072;28;20276;-82
2020/12/31 02:39:00;;;;;;;127.07;48.47;;;2.00;93.70;;;;;;5070605;28;20208;-82
2020/12/31 02:41:28;;;;;;;111.17;44.83;;;1.90;93.70;;;;;;5060016;28;20215;-83
2020/12/31 02:43:55;;;;;;;125.57;47.73;;;1.90;93.70;;;;;;5064102;28;20241;-83
2020/12/31 02:46:23;;;;;;;127.50;48.33;;;1.90;93.70;;;;;;5064530;28;20199;-84
2020/12/31 02:48:52;;;;;;;130.40;47.50;;;1.80;93.70;;;;;;5068651;28;20748;-83
2020/12/31 02:51:20;;;;;;;138.13;46.97;;;1.80;93.70;;;;;;5074347;28;20224;-81
2020/12/31 02:53:48;;;;;;;141.10;46.40;;;1.80;93.70;;;;;;5080090;28;20402;-82
2020/12/31 02:56:18;;;;;;;142.83;46.57;;;1.80;93.70;;;;;;5084052;28;20213;-82
2020/12/31 02:58:47;;;;;;;133.07;48.37;;;1.90;93.70;;;;;;5070215;28;20200;-83
2020/12/31 03:01:15;;;;;;;171.67;48.20;;;1.90;93.70;;;;;;5085970;28;20540;-82
2020/12/31 03:03:43;;;;;;;172.03;49.27;;;2.00;93.70;;;;;;5071587;28;20630;-82
2020/12/31 03:06:11;;;;;;;144.10;47.63;;;2.00;93.70;;;;;;5061112;28;20231;-80
2020/12/31 03:08:41;;;;;;;147.87;49.70;;;2.10;93.70;;;;;;5062604;28;20434;-81
2020/12/31 03:11:13;;;;;;;132.73;46.30;;;2.00;93.70;;;;;;5066073;28;20197;-82
2020/12/31 03:13:40;;;;;;;154.67;45.27;;;2.10;93.70;;;;;;5074749;28;20205;-82
2020/12/31 03:16:09;;;;;;;142.90;43.70;;;2.20;93.70;;;;;;5094814;28;20215;-81
2020/12/31 03:18:36;;;;;;;138.10;44.93;;;2.00;93.70;;;;;;5081475;28;20186;-83
2020/12/31 03:21:04;;;;;;;168.60;46.07;;;2.00;93.70;;;;;;5086338;28;20187;-82
2020/12/31 03:23:32;;;;;;;159.30;43.70;;;2.00;93.70;;;;;;5092931;28;20353;-83
2020/12/31 03:25:59;;;;;;;152.67;42.53;;;2.00;93.70;;;;;;5061376;28;20528;-81
2020/12/31 03:28:27;;;;;;;144.87;40.43;;;2.00;93.70;;;;;;5059868;28;20212;-83
2020/12/31 03:30:54;;;;;;;125.83;38.07;;;2.00;93.70;;;;;;5070882;28;20189;-83
2020/12/31 03:33:23;;;;;;;105.60;37.97;;;2.00;93.70;;;;;;5076485;28;20465;-83
2020/12/31 03:35:51;;;;;;;155.43;40.63;;;2.00;93.70;;;;;;5078628;28;20204;-82
2020/12/31 03:38:21;;;;;;;106.30;35.93;;;2.00;93.70;;;;;;5092058;28;20200;-83
2020/12/31 03:40:49;;;;;;;128.50;37.63;;;2.00;93.70;;;;;;5080535;28;20437;-83
2020/12/31 03:43:17;;;;;;;154.93;41.73;;;1.90;93.70;;;;;;5095814;28;20193;-83
2020/12/31 03:45:44;;;;;;;141.00;37.83;;;2.00;93.70;;;;;;5087089;28;20205;-83
2020/12/31 03:48:12;;;;;;;134.10;38.13;;;1.80;93.70;;;;;;5082467;28;20658;-81
2020/12/31 03:50:42;;;;;;;148.27;40.80;;;1.80;93.70;;;;;;5096489;28;20333;-82
2020/12/31 03:53:09;;;;;;;123.70;38.37;;;1.80;93.70;;;;;;5089417;28;20227;-83
2020/12/31 03:55:37;;;;;;;127.03;38.70;;;1.80;93.70;;;;;;5089887;28;20220;-83
2020/12/31 03:58:05;;;;;;;114.37;37.00;;;1.90;93.70;;;;;;5098267;28;20187;-84
2020/12/31 04:00:32;;;;;;;115.37;35.00;;;1.90;93.70;;;;;;5079805;28;20229;-82
2020/12/31 04:03:00;;;;;;;118.70;35.43;;;1.90;93.70;;;;;;5065247;28;20291;-83
2020/12/31 04:05:27;;;;;;;138.70;37.33;;;1.90;93.70;;;;;;5078902;28;20208;-83
2020/12/31 04:07:56;;;;;;;106.07;34.13;;;1.90;93.70;;;;;;5063749;28;20894;-83
2020/12/31 04:10:25;;;;;;;132.03;36.00;;;1.90;93.60;;;;;;5065695;28;20281;-82
2020/12/31 04:12:53;;;;;;;129.87;36.57;;;1.90;93.60;;;;;;5090182;28;21058;-81
2020/12/31 04:15:20;;;;;;;116.43;36.33;;;1.90;93.60;;;;;;5083562;28;20185;-82
2020/12/31 04:17:48;;;;;;;124.17;38.07;;;1.90;93.60;;;;;;5089344;28;20208;-82
2020/12/31 04:20:15;;;;;;;121.87;34.37;;;1.90;93.60;;;;;;5086723;28;20189;-82
2020/12/31 04:22:42;;;;;;;105.07;34.73;;;1.80;93.60;;;;;;5091391;28;20192;-82
2020/12/31 04:25:11;;;;;;;127.97;35.63;;;1.80;93.60;;;;;;5102286;28;20382;-80
2020/12/31 04:27:39;;;;;;;114.73;35.93;;;1.80;93.60;;;;;;5089945;28;20244;-82
2020/12/31 04:30:06;;;;;;;111.33;36.47;;;1.80;93.60;;;;;;5088899;28;20338;-80
2020/12/31 04:32:34;;;;;;;96.00;35.10;;;1.80;93.60;;;;;;5090542;28;20284;-83
2020/12/31 04:35:01;;;;;;;117.00;35.13;;;1.80;93.60;;;;;;5069722;28;20211;-82
2020/12/31 04:37:29;;;;;;;102.40;35.30;;;1.80;93.60;;;;;;5071342;28;20201;-82
2020/12/31 04:39:56;;;;;;;131.00;37.20;;;1.80;93.70;;;;;;5068105;28;20795;-83
2020/12/31 04:42:34;;;;;;;116.60;34.73;;;1.80;93.60;;;;;;5079225;28;20185;-82
2020/12/31 04:45:02;;;;;;;146.70;38.23;;;1.80;93.60;;;;;;5100683;28;20192;-81
2020/12/31 04:47:36;;;;;;;118.07;36.73;;;1.80;93.60;;;;;;5100710;28;20239;-83
2020/12/31 04:50:06;;;;;;;145.53;39.23;;;1.80;93.60;;;;;;5092895;28;21595;-81
2020/12/31 04:52:34;;;;;;;121.73;37.03;;;1.90;93.60;;;;;;5075663;28;20393;-83
2020/12/31 04:55:02;;;;;;;121.17;38.10;;;1.90;93.60;;;;;;5062950;28;20220;-82
2020/12/31 04:57:29;;;;;;;132.27;38.03;;;1.90;93.60;;;;;;5075029;28;20196;-81
2020/12/31 04:59:59;;;;;;;126.17;37.80;;;2.00;93.60;;;;;;5075150;28;20193;-82
2020/12/31 05:02:28;;;;;;;102.47;34.40;;;1.90;93.60;;;;;;5087268;28;20196;-82
2020/12/31 05:04:58;;;;;;;103.53;34.37;;;1.90;93.60;;;;;;5098751;28;20356;-82
2020/12/31 05:07:26;;;;;;;97.50;32.97;;;1.90;93.60;;;;;;5098709;28;20181;-82
2020/12/31 05:10:09;;;;;;;93.80;34.43;;;1.90;93.60;;;;;;5092181;28;20260;-83
2020/12/31 05:12:39;;;;;;;78.23;32.43;;;1.80;93.60;;;;;;5089189;28;20285;-82
2020/12/31 05:15:09;;;;;;;96.90;32.83;;;1.80;93.60;;;;;;5085093;28;20481;-83
2020/12/31 05:17:36;;;;;;;87.53;31.87;;;1.80;93.60;;;;;;5094643;28;20207;-84
2020/12/31 05:20:14;;;;;;;84.23;31.00;;;1.80;93.70;;;;;;5096852;28;20332;-83
2020/12/31 05:22:41;;;;;;;90.93;31.60;;;1.80;93.60;;;;;;5096565;28;20207;-81
2020/12/31 05:25:09;;;;;;;80.83;31.40;;;1.80;93.60;;;;;;5074138;28;20209;-83
2020/12/31 05:27:36;;;;;;;107.27;33.07;;;1.70;93.60;;;;;;5072373;28;20258;-81
2020/12/31 05:30:06;;;;;;;108.30;32.83;;;1.70;93.60;;;;;;5071173;28;20201;-82
2020/12/31 05:32:38;;;;;;;97.80;32.97;;;1.80;93.60;;;;;;5059423;28;20220;-83
2020/12/31 05:35:10;;;;;;;106.27;33.97;;;1.80;93.60;;;;;;5069268;28;21019;-84
2020/12/31 05:37:38;;;;;;;112.30;33.73;;;1.80;93.60;;;;;;5079905;28;20265;-82
2020/12/31 05:40:07;;;;;;;103.43;34.60;;;1.80;93.60;;;;;;5077599;28;20201;-81
2020/12/31 05:42:37;;;;;;;109.00;34.80;;;1.80;93.60;;;;;;5067130;28;20682;-81
2020/12/31 05:45:10;;;;;;;102.17;33.23;;;1.70;93.50;;;;;;5073713;28;20197;-82
2020/12/31 05:47:49;;;;;;;127.17;34.27;;;1.70;93.50;;;;;;5069201;28;20205;-84
2020/12/31 05:50:22;;;;;;;114.40;36.40;;;1.70;93.60;;;;;;5073191;28;20865;-83
2020/12/31 05:52:51;;;;;;;92.67;33.13;;;1.70;93.50;;;;;;5077852;28;20244;-83
2020/12/31 05:55:20;;;;;;;99.60;36.43;;;1.70;93.50;;;;;;5069668;28;20955;-82
2020/12/31 05:57:50;;;;;;;98.87;33.73;;;1.80;93.50;;;;;;5071396;28;20729;-82
2020/12/31 06:00:20;;;;;;;107.67;37.47;;;1.70;93.50;;;;;;5075184;28;20628;-82
2020/12/31 06:02:51;;;;;;;96.43;35.20;;;1.70;93.50;;;;;;5060055;28;20197;-80
2020/12/31 06:05:19;;;;;;;101.30;34.57;;;1.80;93.50;;;;;;5063765;28;20205;-83
2020/12/31 06:07:49;;;;;;;100.90;35.17;;;1.80;93.50;;;;;;5070818;28;20229;-81
2020/12/31 06:10:20;;;;;;;95.37;35.03;;;1.80;93.50;;;;;;5077182;28;20224;-84
2020/12/31 06:12:53;;;;;;;104.13;36.83;;;1.80;93.50;;;;;;5100865;28;20220;-82
2020/12/31 06:15:23;;;;;;;112.03;38.43;;;1.80;93.50;;;;;;5094210;28;20329;-84
2020/12/31 06:17:52;;;;;;;117.70;38.70;;;1.80;93.50;;;;;;5085747;28;20223;-81
2020/12/31 06:20:21;;;;;;;112.90;36.10;;;1.80;93.50;;;;;;5067299;28;20388;-84
2020/12/31 06:22:58;;;;;;;103.40;37.07;;;1.80;93.50;;;;;;5075190;28;20454;-84
2020/12/31 06:25:33;;;;;;;140.27;38.70;;;1.80;93.50;;;;;;5069628;28;20200;-82
2020/12/31 06:28:05;;;;;;;118.63;39.70;;;1.80;93.50;;;;;;5071805;28;20197;-85
2020/12/31 06:30:35;;;;;;;128.23;41.47;;;1.80;93.50;;;;;;5076906;28;20201;-83
2020/12/31 06:33:10;;;;;;;106.67;39.50;;;1.90;93.50;;;;;;5063292;28;20584;-83
2020/12/31 06:35:42;;;;;;;102.10;36.10;;;1.90;93.50;;;;;;5067460;28;20456;-82
2020/12/31 06:38:15;;;;;;;94.77;34.27;;;1.90;93.50;;;;;;5066164;28;20525;-82
2020/12/31 06:40:42;;;;;;;80.93;33.23;;;1.90;93.50;;;;;;5065629;28;20896;-83
2020/12/31 06:43:11;;;;;;;91.27;34.70;;;1.90;93.50;;;;;;5054740;28;20374;-81
2020/12/31 06:45:41;;;;;;;93.90;34.27;;;1.80;93.50;;;;;;5058059;28;20611;-79
2020/12/31 06:48:39;;;;;;;92.53;33.20;;;1.90;93.60;;;;;;5065955;28;20216;-82
2020/12/31 06:51:08;;;;;;;74.00;31.87;;;1.80;93.50;;;;;;5054054;28;20447;-82
2020/12/31 06:53:38;;;;;;;76.20;31.53;;;1.90;93.50;;;;;;5062156;28;20229;-83
2020/12/31 06:56:07;;;;;;;83.83;32.43;;;1.80;93.50;;;;;;5067984;28;20674;-82
2020/12/31 06:58:35;;;;;;;88.37;33.63;;;1.80;93.50;;;;;;5065996;28;20485;-84
2020/12/31 07:01:23;;;;;;;77.47;32.67;;;1.80;93.50;;;;;;5076504;28;20805;-83
2020/12/31 07:03:52;;;;;;;66.60;28.47;;;1.80;93.50;;;;;;5083384;28;20201;-83
2020/12/31 07:06:32;;;;;;;71.97;31.47;;;1.80;93.50;;;;;;5075408;28;20196;-81
2020/12/31 07:09:05;;;;;;;67.00;29.77;;;1.70;93.50;;;;;;5082417;28;20523;-81
2020/12/31 07:11:37;;;;;;;64.07;28.80;;;1.70;93.50;;;;;;5079609;28;20205;-81
2020/12/31 07:14:23;;;;;;;60.50;25.73;;;1.70;93.50;;;;;;5082765;28;20459;-81
2020/12/31 07:17:05;;;;;;;70.83;27.07;;;1.70;93.60;;;;;;5079039;28;20197;-81
2020/12/31 07:19:40;;;;;;;64.80;26.47;;;1.60;93.60;;;;;;5069118;28;20197;-80
2020/12/31 07:22:21;;;;;;;59.40;25.77;;;1.60;93.60;;;;;;5078356;28;20197;-83
2020/12/31 07:24:51;;;;;;;66.17;24.67;;;1.60;93.60;;;;;;5071359;28;20208;-81
2020/12/31 07:27:27;;;;;;;67.13;26.97;;;1.50;93.50;;;;;;5068063;28;20268;-79
2020/12/31 07:30:01;;;;;;;70.13;26.50;;;1.60;93.60;;;;;;5045575;28;20602;-82
2020/12/31 07:32:54;;;;;;;63.13;26.53;;;1.60;93.50;;;;;;5059772;28;20260;-81
2020/12/31 07:35:38;;;;;;;69.87;27.27;;;1.70;93.60;;;;;;5074178;28;20987;-82
2020/12/31 07:38:10;;;;;;;62.80;25.67;;;1.60;93.50;;;;;;5074550;28;20216;-83
2020/12/31 07:40:43;;;;;;;71.70;27.53;;;1.70;93.60;;;;;;5089662;28;21055;-82
2020/12/31 07:43:13;;;;;;;68.80;25.10;;;1.70;93.60;;;;;;5083546;28;20205;-83
2020/12/31 07:45:45;;;;;;;59.40;23.60;;;1.60;93.60;;;;;;5071983;28;20213;-82
2020/12/31 07:48:13;;;;;;;55.33;24.33;;;1.70;93.60;;;;;;5065448;28;20678;-81
2020/12/31 07:50:42;;;;;;;58.23;23.80;;;1.60;93.60;;;;;;5067558;28;20489;-81
2020/12/31 07:53:11;;;;;;;59.00;23.20;;;1.60;93.60;;;;;;5060847;28;20228;-81
2020/12/31 07:55:46;;;;;;;57.63;21.60;;;1.60;93.60;;;;;;5061757;28;20597;-82
2020/12/31 07:58:17;;;;;;;64.73;23.70;;;1.50;93.60;;;;;;5062791;28;20640;-81
2020/12/31 08:00:45;;;;;;;77.03;24.37;;;1.50;93.60;;;;;;5062595;28;20213;-82
2020/12/31 08:03:12;;;;;;;62.27;23.27;;;1.40;93.60;;;;;;5068796;28;20289;-82
2020/12/31 08:05:40;;;;;;;64.93;23.57;;;1.40;93.60;;;;;;5077927;28;20196;-82
2020/12/31 08:08:09;;;;;;;64.53;23.70;;;1.50;93.60;;;;;;5069921;28;20216;-80
2020/12/31 08:10:36;;;;;;;73.57;25.80;;;1.40;93.60;;;;;;5083116;28;20479;-83
2020/12/31 08:13:05;;;;;;;89.40;25.63;;;1.40;93.60;;;;;;5078042;28;20229;-80
2020/12/31 08:15:33;;;;;;;60.43;24.07;;;1.40;93.60;;;;;;5067711;28;20715;-81
2020/12/31 08:18:02;;;;;;;68.93;24.13;;;1.40;93.60;;;;;;5068528;28;20222;-82
2020/12/31 08:20:33;;;;;;;69.63;25.87;;;1.30;93.60;;;;;;5063473;28;20199;-82
2020/12/31 08:23:04;;;;;;;55.07;23.50;;;1.40;93.60;;;;;;5067161;28;20324;-83
2020/12/31 08:25:37;;;;;;;72.97;25.03;;;1.40;93.60;;;;;;5066104;28;20206;-83
2020/12/31 08:28:07;;;;;;;80.73;25.83;;;1.30;93.60;;;;;;5070065;28;20252;-83
2020/12/31 08:30:38;;;;;;;65.30;25.70;;;1.30;93.60;;;;;;5061783;28;20204;-83
2020/12/31 08:33:10;;;;;;;68.53;24.00;;;1.30;93.60;;;;;;5065035;28;20229;-81
2020/12/31 08:35:39;;;;;;;58.37;23.73;;;1.30;93.60;;;;;;5065086;28;21072;-83
2020/12/31 08:38:09;;;;;;;67.13;23.60;;;1.30;93.60;;;;;;5060542;28;20197;-80
2020/12/31 08:40:46;;;;;;;74.40;23.90;;;1.30;93.60;;;;;;5064397;28;20232;-81
2020/12/31 08:43:20;;;;;;;66.20;24.10;;;1.30;93.60;;;;;;5063589;28;20193;-81
2020/12/31 08:45:48;;;;;;;60.87;24.13;;;1.20;93.60;;;;;;5067735;28;20200;-81
2020/12/31 08:48:21;;;;;;;75.57;24.63;;;1.20;93.60;;;;;;5066548;28;20207;-78
2020/12/31 08:51:03;;;;;;;53.93;21.40;;;1.30;93.60;;;;;;5065620;28;20504;-80
2020/12/31 08:53:47;;;;;;;61.60;20.47;;;1.30;93.60;;;;;;5070498;28;20880;-80
2020/12/31 08:56:16;;;;;;;57.63;20.20;;;1.30;93.60;;;;;;5062483;28;20212;-81
2020/12/31 08:58:44;;;;;;;58.07;20.33;;;1.30;93.60;;;;;;5056999;28;20624;-80
2020/12/31 09:01:23;;;;;;;41.40;19.23;;;1.30;93.60;;;;;;5063781;28;20211;-78
2020/12/31 09:03:51;;;;;;;47.00;18.07;;;1.00;93.60;;;;;;5049110;28;20307;-79
2020/12/31 09:06:24;;;;;;;41.00;18.10;;;1.20;93.60;;;;;;5083744;28;20256;-81
2020/12/31 09:08:52;;;;;;;51.97;18.90;;;1.20;93.60;;;;;;5077832;28;20654;-79
2020/12/31 09:11:26;;;;;;;42.83;17.43;;;1.20;93.60;;;;;;5075458;28;20787;-79
2020/12/31 09:13:54;;;;;;;42.67;17.37;;;1.20;93.60;;;;;;5063017;28;20315;-81
2020/12/31 09:16:28;;;;;;;45.00;17.93;;;1.20;93.60;;;;;;5073040;28;20235;-81
2020/12/31 09:18:59;;;;;;;41.77;17.90;;;1.20;93.60;;;;;;5066935;28;20218;-79
2020/12/31 09:21:28;;;;;;;39.43;17.83;;;1.30;93.60;;;;;;5060316;28;20380;-81
2020/12/31 09:23:56;;;;;;;44.93;18.23;;;1.30;93.70;;;;;;5067254;28;20209;-81
2020/12/31 09:26:26;;;;;;;38.30;18.00;;;1.40;93.70;;;;;;5066091;28;20208;-81
2020/12/31 09:28:53;;;;;;;40.73;17.93;;;1.50;93.70;;;;;;5059041;28;20192;-79
2020/12/31 09:31:22;;;;;;;38.43;18.67;;;1.60;93.70;;;;;;5066756;28;20378;-77
2020/12/31 09:33:51;;;;;;;41.53;17.93;;;1.70;93.80;;;;;;5061123;28;20954;-82
2020/12/31 09:36:22;;;;;;;43.77;17.87;;;1.50;93.70;;;;;;5065816;28;20211;-79
2020/12/31 09:38:50;;;;;;;37.30;16.57;;;1.60;93.70;;;;;;5066182;28;20419;-81
2020/12/31 09:41:19;;;;;;;44.20;17.20;;;1.50;93.70;;;;;;5069217;28;20213;-80
2020/12/31 09:43:50;;;;;;;47.80;18.80;;;1.50;93.60;;;;;;5069161;28;20226;-82
2020/12/31 09:46:19;;;;;;;46.90;19.70;;;1.60;93.70;;;;;;5069402;28;20208;-82
2020/12/31 09:48:47;;;;;;;42.60;18.27;;;1.70;93.80;;;;;;5063437;28;20386;-80
2020/12/31 09:51:15;;;;;;;37.93;18.83;;;1.80;93.80;;;;;;5070702;28;20561;-80
2020/12/31 09:53:42;;;;;;;37.83;17.83;;;2.00;93.80;;;;;;5066549;28;20224;-80
2020/12/31 09:56:11;;;;;;;37.10;17.40;;;2.00;93.80;;;;;;5075809;28;20211;-80
2020/12/31 09:58:40;;;;;;;37.77;19.00;;;1.90;93.80;;;;;;5063438;28;20224;-82
2020/12/31 10:01:09;;;;;;;41.63;18.40;;;2.10;93.80;;;;;;5070126;28;20740;-79
2020/12/31 10:03:37;;;;;;;43.77;19.47;;;2.00;93.80;;;;;;5064694;28;20859;-80
2020/12/31 10:06:06;;;;;;;35.83;17.93;;;2.00;93.80;;;;;;5068653;28;20247;-79
2020/12/31 10:08:34;;;;;;;40.70;19.33;;;2.00;93.80;;;;;;5069356;28;20203;-79
2020/12/31 10:11:05;;;;;;;37.00;18.30;;;2.00;93.70;;;;;;5062679;28;20274;-79
2020/12/31 10:13:32;;;;;;;39.10;17.87;;;2.00;93.70;;;;;;5064557;28;20217;-79
2020/12/31 10:16:00;;;;;;;39.67;17.80;;;1.90;93.60;;;;;;5070244;28;20221;-80
2020/12/31 10:18:28;;;;;;;39.60;18.33;;;1.90;93.60;;;;;;5060945;28;20605;-80
2020/12/31 10:20:56;;;;;;;38.27;18.87;;;2.00;93.70;;;;;;5067869;28;20775;-82
2020/12/31 10:23:23;;;;;;;39.17;18.00;;;2.00;93.70;;;;;;5060809;28;20612;-79
2020/12/31 10:25:52;;;;;;;40.23;18.50;;;2.10;93.80;;;;;;5063781;28;20615;-79
2020/12/31 10:28:20;;;;;;;38.73;18.67;;;2.10;93.70;;;;;;5068681;28;20188;-78
2020/12/31 10:30:47;;;;;;;37.90;18.93;;;2.10;93.70;;;;;;5075013;28;20820;-80
2020/12/31 10:33:15;;;;;;;38.00;18.37;;;2.00;93.60;;;;;;5090459;28;20494;-82
2020/12/31 10:35:43;;;;;;;44.00;19.90;;;2.00;93.70;;;;;;5084606;28;20200;-81
2020/12/31 10:38:11;;;;;;;37.67;18.93;;;2.10;93.70;;;;;;5075132;28;20433;-81
2020/12/31 10:40:39;;;;;;;38.13;18.67;;;2.10;93.80;;;;;;5096535;28;20240;-80
2020/12/31 10:43:06;;;;;;;38.80;19.30;;;2.10;93.70;;;;;;5074908;28;20256;-79
2020/12/31 10:45:33;;;;;;;36.07;17.83;;;2.10;93.70;;;;;;5076091;28;20218;-80
2020/12/31 10:48:01;;;;;;;37.37;18.07;;;2.00;93.60;;;;;;5085907;28;20373;-78
2020/12/31 10:50:29;;;;;;;38.53;17.47;;;2.00;93.60;;;;;;5093284;28;20192;-81
2020/12/31 10:52:57;;;;;;;38.23;18.37;;;2.00;93.60;;;;;;5084614;28;20222;-78
2020/12/31 10:55:25;;;;;;;39.67;18.83;;;2.00;93.60;;;;;;5073523;28;20524;-81
2020/12/31 10:57:53;;;;;;;39.53;17.30;;;2.20;93.70;;;;;;5067093;28;20209;-82
2020/12/31 11:00:20;;;;;;;38.80;17.93;;;2.10;93.70;;;;;;5069390;28;20445;-78
2020/12/31 11:02:48;;;;;;;37.37;18.80;;;2.10;93.70;;;;;;5070034;28;20198;-80
2020/12/31 11:05:15;;;;;;;39.60;18.40;;;2.10;93.70;;;;;;5064829;28;20551;-80
2020/12/31 11:07:43;;;;;;;39.57;19.80;;;2.10;93.70;;;;;;5063038;28;20723;-82
2020/12/31 11:10:11;;;;;;;42.83;17.80;;;2.10;93.60;;;;;;5070375;28;20623;-81
2020/12/31 11:12:39;;;;;;;37.77;17.63;;;2.10;93.70;;;;;;5063000;28;20193;-81
2020/12/31 11:15:07;;;;;;;43.90;19.20;;;2.00;93.70;;;;;;5067751;28;20747;-77
2020/12/31 11:17:34;;;;;;;42.97;19.07;;;2.10;93.80;;;;;;5079520;28;20212;-83
2020/12/31 11:20:01;;;;;;;39.83;19.17;;;2.10;93.80;;;;;;5085026;28;20200;-80
2020/12/31 11:22:29;;;;;;;43.20;19.07;;;2.00;93.70;;;;;;5080696;28;20177;-79
2020/12/31 11:24:56;;;;;;;46.90;19.87;;;2.00;93.70;;;;;;5090472;28;20604;-80
2020/12/31 11:27:26;;;;;;;43.77;19.03;;;2.00;93.70;;;;;;5090041;28;20185;-79
2020/12/31 11:29:53;;;;;;;45.63;19.87;;;2.10;93.80;;;;;;5086161;28;20215;-80
2020/12/31 11:32:21;;;;;;;41.87;20.43;;;2.00;93.70;;;;;;5092921;28;20219;-82
2020/12/31 11:34:49;;;;;;;48.63;21.83;;;2.10;93.80;;;;;;5087546;28;20248;-83
2020/12/31 11:37:16;;;;;;;55.20;22.90;;;2.00;93.80;;;;;;5075119;28;20209;-79
2020/12/31 11:39:44;;;;;;;50.63;21.57;;;2.00;93.80;;;;;;5055191;28;20227;-81
2020/12/31 11:42:11;;;;;;;54.17;21.63;;;2.10;93.90;;;;;;5071608;28;20201;-79
2020/12/31 11:44:41;;;;;;;47.60;21.57;;;2.20;93.90;;;;;;5067465;28;20202;-76
2020/12/31 11:47:09;;;;;;;51.90;23.37;;;2.20;93.90;;;;;;5068868;28;20208;-80
2020/12/31 11:49:37;;;;;;;50.60;22.43;;;2.30;93.90;;;;;;5065179;28;20763;-77
2020/12/31 11:52:05;;;;;;;47.73;22.63;;;2.30;93.90;;;;;;5063540;28;20208;-79
2020/12/31 11:54:32;;;;;;;47.77;23.00;;;2.30;93.90;;;;;;5074238;28;20225;-82
2020/12/31 11:56:59;;;;;;;54.33;23.57;;;2.40;93.90;;;;;;5061133;28;20208;-79
2020/12/31 11:59:27;;;;;;;54.10;24.60;;;2.40;93.90;;;;;;5076261;28;20193;-79
2020/12/31 12:01:55;;;;;;;49.13;24.50;;;2.40;93.90;;;;;;5078412;28;20444;-78
2020/12/31 12:04:23;;;;;;;49.97;23.73;;;2.50;93.90;;;;;;5079949;28;20626;-81
2020/12/31 12:06:52;;;;;;;49.67;23.77;;;2.50;93.90;;;;;;5075667;28;20656;-80
2020/12/31 12:09:20;;;;;;;51.87;24.40;;;2.60;93.90;;;;;;5074247;28;20667;-79
2020/12/31 12:11:48;;;;;;;49.23;24.33;;;2.50;93.90;;;;;;5080444;28;20698;-79
2020/12/31 12:14:16;;;;;;;53.70;26.57;;;2.50;93.80;;;;;;5077457;28;20741;-80
2020/12/31 12:16:48;;;;;;;49.03;24.27;;;2.50;93.80;;;;;;5072474;28;20209;-79
2020/12/31 12:19:16;;;;;;;49.10;24.30;;;2.50;93.80;;;;;;5079001;28;20307;-80
2020/12/31 12:21:44;;;;;;;47.73;24.40;;;2.40;93.60;;;;;;5078709;28;20206;-77
2020/12/31 12:24:12;;;;;;;50.13;25.40;;;2.40;93.60;;;;;;5068362;28;21000;-78
2020/12/31 12:26:40;;;;;;;46.17;24.17;;;2.40;93.60;;;;;;5083224;28;20376;-79
2020/12/31 12:29:09;;;;;;;48.03;23.70;;;2.30;93.60;;;;;;5073514;28;20457;-79
2020/12/31 12:31:38;;;;;;;48.53;23.73;;;2.30;93.60;;;;;;5075226;28;20238;-78
2020/12/31 12:34:06;;;;;;;50.90;25.77;;;2.20;93.60;;;;;;5068070;28;20387;-78
2020/12/31 12:36:35;;;;;;;48.13;25.53;;;2.20;93.70;;;;;;5044446;28;20297;-79
2020/12/31 12:39:04;;;;;;;51.30;24.63;;;2.20;93.70;;;;;;5073147;28;20511;-80
2020/12/31 12:41:31;;;;;;;53.37;25.93;;;2.20;93.70;;;;;;5078763;28;20260;-84
2020/12/31 12:43:59;;;;;;;53.33;25.53;;;2.20;93.70;;;;;;5064708;28;20220;-80